Time;durP1;ratioP1;P1;durP2;ratioP2;P2;SDS_P1;SDS_P2;PMS_P1;PMS_P2;Temp;Humidity;BMP_temperature;BMP_pressure;BME280_temperature;BME280_humidity;BME280_pressure;Samples;Min_cycle;Max_cycle;Signal;HPM_P1;HPM_P2
2021/12/04 00:02:16;;;;;;;0.40;0.40;;;3.70;95.90;;;;;;5026023;28;20204;-68
2021/12/04 00:04:46;;;;;;;0.60;0.20;;;3.70;95.80;;;;;;5026591;28;20666;-69
2021/12/04 00:07:12;;;;;;;0.23;0.23;;;3.70;95.90;;;;;;5027107;28;20196;-68
2021/12/04 00:09:38;;;;;;;0.33;0.33;;;3.70;95.90;;;;;;5026108;28;20290;-69
2021/12/04 00:12:06;;;;;;;0.43;0.43;;;3.70;95.90;;;;;;5026170;28;20678;-68
2021/12/04 00:14:34;;;;;;;0.60;0.53;;;3.70;95.80;;;;;;5028312;28;20187;-68
2021/12/04 00:17:00;;;;;;;0.53;0.53;;;3.70;95.80;;;;;;5026690;28;20227;-69
2021/12/04 00:19:27;;;;;;;0.30;0.30;;;3.80;95.70;;;;;;5025670;28;20823;-68
2021/12/04 00:21:53;;;;;;;0.33;0.33;;;3.80;95.40;;;;;;5025047;28;20183;-68
2021/12/04 00:24:20;;;;;;;0.33;0.33;;;3.80;95.40;;;;;;5026374;28;20189;-68
2021/12/04 00:26:47;;;;;;;0.30;0.30;;;3.80;95.20;;;;;;5027919;28;20254;-68
2021/12/04 00:29:13;;;;;;;0.30;0.30;;;3.80;95.10;;;;;;5025560;28;20212;-68
2021/12/04 00:31:50;;;;;;;0.30;0.30;;;3.80;94.90;;;;;;5024355;28;20180;-68
2021/12/04 00:34:18;;;;;;;0.27;0.27;;;3.80;94.80;;;;;;5023891;28;20226;-68
2021/12/04 00:50:09;;;;;;;0.43;0.43;;;3.80;94.50;;;;;;5025254;28;20223;-69
2021/12/04 00:52:35;;;;;;;0.40;0.40;;;3.80;94.70;;;;;;5026233;28;20193;-68
2021/12/04 00:55:02;;;;;;;0.47;0.47;;;3.80;94.70;;;;;;5027841;28;20292;-68
2021/12/04 00:57:27;;;;;;;0.83;0.47;;;3.80;94.70;;;;;;5027086;28;20203;-68
2021/12/04 00:59:53;;;;;;;0.30;0.30;;;3.80;94.70;;;;;;5024693;28;20184;-69
2021/12/04 01:02:20;;;;;;;0.47;0.47;;;3.80;94.70;;;;;;5020920;28;20212;-68
2021/12/04 01:04:46;;;;;;;0.30;0.30;;;3.70;94.60;;;;;;5025877;28;20176;-68
2021/12/04 01:07:12;;;;;;;0.30;0.30;;;3.70;94.60;;;;;;5025934;28;20725;-68
2021/12/04 01:09:38;;;;;;;0.93;0.70;;;3.70;94.80;;;;;;5024930;28;20262;-68
2021/12/04 01:12:04;;;;;;;0.40;0.40;;;3.70;94.60;;;;;;5026024;28;20279;-69
2021/12/04 01:14:31;;;;;;;0.40;0.40;;;3.70;94.60;;;;;;5024898;28;20242;-69
2021/12/04 01:16:58;;;;;;;0.40;0.40;;;3.70;94.70;;;;;;5025190;28;20238;-68
2021/12/04 01:19:25;;;;;;;0.57;0.57;;;3.70;94.80;;;;;;5025852;28;20192;-68
2021/12/04 01:21:53;;;;;;;0.70;0.70;;;3.60;94.70;;;;;;5020370;28;20241;-70
2021/12/04 01:24:20;;;;;;;0.63;0.63;;;3.60;94.90;;;;;;5025872;28;20191;-68
2021/12/04 01:26:47;;;;;;;0.43;0.40;;;3.60;94.90;;;;;;5026206;28;20184;-68
2021/12/04 01:29:14;;;;;;;0.40;0.40;;;3.60;94.80;;;;;;5026231;28;20291;-68
2021/12/04 01:31:40;;;;;;;0.30;0.30;;;3.60;94.80;;;;;;5025839;28;20187;-68
2021/12/04 01:34:06;;;;;;;0.60;0.60;;;3.50;94.80;;;;;;5026519;28;20181;-68
2021/12/04 01:36:32;;;;;;;0.50;0.50;;;3.50;95.00;;;;;;5025730;28;20881;-68
2021/12/04 01:38:58;;;;;;;0.70;0.70;;;3.50;95.00;;;;;;5023493;28;20230;-69
2021/12/04 01:41:24;;;;;;;0.60;0.60;;;3.50;94.90;;;;;;5023687;28;20187;-68
2021/12/04 01:43:50;;;;;;;0.37;0.37;;;3.40;94.80;;;;;;5024549;28;20185;-68
2021/12/04 01:46:15;;;;;;;1.77;0.40;;;3.40;95.00;;;;;;5025914;28;20195;-69
2021/12/04 01:48:41;;;;;;;1.07;0.50;;;3.30;95.10;;;;;;5025214;28;20212;-68
2021/12/04 01:51:07;;;;;;;0.93;0.40;;;3.30;95.00;;;;;;5025795;28;20184;-68
2021/12/04 01:53:33;;;;;;;0.70;0.60;;;3.30;95.10;;;;;;5025723;28;20176;-68
2021/12/04 01:55:59;;;;;;;1.03;1.03;;;3.30;95.20;;;;;;5025869;28;20191;-68
2021/12/04 01:58:27;;;;;;;2.00;0.87;;;3.30;95.30;;;;;;5023033;28;20204;-68
2021/12/04 02:00:54;;;;;;;0.60;0.60;;;3.30;95.30;;;;;;5021342;28;20195;-68
2021/12/04 02:03:20;;;;;;;0.90;0.70;;;3.30;95.40;;;;;;5025798;28;20699;-68
2021/12/04 02:05:48;;;;;;;0.43;0.43;;;3.30;95.40;;;;;;5024869;28;20188;-69
2021/12/04 02:08:16;;;;;;;0.40;0.40;;;3.30;95.40;;;;;;5029632;28;20219;-68
2021/12/04 02:10:43;;;;;;;1.00;1.00;;;3.30;95.40;;;;;;5025673;28;20730;-68
2021/12/04 02:13:09;;;;;;;0.90;0.40;;;3.30;95.70;;;;;;5025236;28;20183;-68
2021/12/04 02:15:34;;;;;;;0.67;0.67;;;3.30;95.70;;;;;;5022738;28;20188;-68
2021/12/04 02:18:02;;;;;;;0.50;0.50;;;3.40;95.50;;;;;;5025965;28;20180;-68
2021/12/04 02:20:32;;;;;;;0.60;0.60;;;3.40;95.40;;;;;;5022406;28;20216;-68
2021/12/04 02:22:58;;;;;;;0.93;0.93;;;3.40;95.30;;;;;;5025123;28;20226;-69
2021/12/04 02:25:24;;;;;;;0.73;0.73;;;3.40;95.20;;;;;;5023368;28;20731;-68
2021/12/04 02:27:51;;;;;;;0.50;0.50;;;3.40;95.20;;;;;;5022287;28;20176;-68
2021/12/04 02:30:23;;;;;;;0.70;0.70;;;3.40;95.20;;;;;;5020666;28;20176;-68
2021/12/04 02:32:50;;;;;;;1.17;1.07;;;3.40;95.00;;;;;;5019041;28;20186;-68
2021/12/04 02:35:17;;;;;;;0.70;0.70;;;3.40;95.00;;;;;;5020701;28;20194;-68
2021/12/04 02:37:43;;;;;;;0.67;0.67;;;3.40;94.80;;;;;;5024538;28;20211;-68
2021/12/04 02:40:14;;;;;;;0.97;0.70;;;3.30;94.80;;;;;;5018536;28;20669;-68
2021/12/04 02:42:41;;;;;;;0.73;0.70;;;3.30;94.90;;;;;;5021877;28;20184;-68
2021/12/04 02:45:09;;;;;;;0.53;0.53;;;3.30;95.10;;;;;;5024211;28;20187;-68
2021/12/04 02:47:35;;;;;;;0.83;0.80;;;3.30;95.10;;;;;;5022895;28;20192;-67
2021/12/04 02:50:05;;;;;;;1.30;1.27;;;3.30;95.20;;;;;;5019034;28;20302;-68
2021/12/04 02:52:32;;;;;;;0.60;0.60;;;3.30;95.20;;;;;;5022218;28;20792;-68
2021/12/04 02:54:58;;;;;;;0.90;0.80;;;3.40;95.20;;;;;;5024062;28;20180;-68
2021/12/04 02:57:24;;;;;;;1.60;0.50;;;3.40;95.30;;;;;;5022221;28;20188;-68
2021/12/04 02:59:50;;;;;;;0.97;0.97;;;3.40;95.50;;;;;;5024503;28;20192;-67
2021/12/04 03:02:19;;;;;;;0.80;0.80;;;3.50;95.40;;;;;;5023211;28;20580;-69
2021/12/04 03:04:56;;;;;;;0.90;0.90;;;3.50;95.40;;;;;;5018351;28;20184;-68
2021/12/04 03:07:23;;;;;;;0.80;0.70;;;3.50;95.60;;;;;;5027110;28;20860;-68
2021/12/04 03:09:49;;;;;;;1.90;0.67;;;3.50;95.60;;;;;;5026925;28;20207;-68
2021/12/04 03:12:18;;;;;;;0.60;0.60;;;3.60;95.50;;;;;;5027549;28;21050;-68
2021/12/04 03:14:44;;;;;;;1.00;1.00;;;3.60;95.60;;;;;;5025550;28;20188;-68
2021/12/04 03:17:10;;;;;;;0.87;0.87;;;3.60;95.60;;;;;;5024142;28;20211;-69
2021/12/04 03:19:38;;;;;;;1.03;1.03;;;3.60;95.40;;;;;;5028375;28;20216;-68
2021/12/04 03:22:05;;;;;;;1.83;1.30;;;3.60;95.40;;;;;;5024197;28;20523;-68
2021/12/04 03:24:35;;;;;;;0.90;0.90;;;3.60;95.20;;;;;;5027601;28;20185;-68
2021/12/04 03:27:00;;;;;;;1.00;1.00;;;3.60;95.20;;;;;;5025038;28;20188;-68
2021/12/04 03:29:28;;;;;;;3.83;1.00;;;3.60;95.20;;;;;;5026959;28;20656;-68
2021/12/04 03:42:42;;;;;;;1.20;1.20;;;3.30;95.50;;;;;;5024765;28;20183;-68
2021/12/04 03:45:09;;;;;;;0.70;0.70;;;3.30;95.80;;;;;;5027481;28;20192;-68
2021/12/04 03:47:39;;;;;;;1.67;1.20;;;3.20;96.00;;;;;;5027763;28;20192;-68
2021/12/04 03:50:06;;;;;;;1.27;1.23;;;3.20;96.20;;;;;;5024480;28;20224;-68
2021/12/04 03:52:31;;;;;;;1.17;1.17;;;3.10;96.40;;;;;;5027733;28;20180;-68
2021/12/04 03:54:59;;;;;;;1.07;0.97;;;3.10;96.60;;;;;;5024996;28;20192;-68
2021/12/04 03:57:24;;;;;;;1.37;1.20;;;3.10;96.70;;;;;;5027099;28;20192;-68
2021/12/04 03:59:50;;;;;;;1.10;1.10;;;3.00;96.60;;;;;;5027478;28;20214;-68
2021/12/04 04:02:17;;;;;;;0.90;0.90;;;3.00;96.60;;;;;;5025948;28;20195;-68
2021/12/04 04:04:43;;;;;;;0.97;0.97;;;2.90;97.10;;;;;;5025607;28;20267;-68
2021/12/04 04:07:10;;;;;;;1.20;1.20;;;2.90;97.20;;;;;;5026726;28;20662;-68
2021/12/04 04:09:36;;;;;;;1.30;1.20;;;2.80;97.40;;;;;;5026803;28;20302;-68
2021/12/04 04:12:03;;;;;;;2.47;1.17;;;2.80;97.50;;;;;;5026390;28;20638;-69
2021/12/04 04:14:29;;;;;;;1.53;1.43;;;2.80;97.50;;;;;;5022989;28;20185;-68
2021/12/04 04:16:56;;;;;;;1.00;1.00;;;2.70;97.60;;;;;;5023239;28;20267;-68
2021/12/04 04:19:23;;;;;;;5.83;0.90;;;2.70;97.70;;;;;;5025957;28;20252;-68
2021/12/04 04:21:53;;;;;;;0.97;0.97;;;2.70;97.70;;;;;;5022901;28;20715;-68
2021/12/04 04:24:19;;;;;;;0.80;0.80;;;2.70;97.70;;;;;;5025915;28;20275;-68
2021/12/04 04:26:46;;;;;;;0.87;0.70;;;2.70;97.70;;;;;;5026661;28;20263;-68
2021/12/04 04:29:13;;;;;;;1.13;1.07;;;2.60;97.60;;;;;;5024898;28;20335;-68
2021/12/04 04:31:47;;;;;;;0.83;0.70;;;2.60;97.60;;;;;;5023119;28;20184;-68
2021/12/04 04:34:26;;;;;;;0.90;0.90;;;2.70;97.50;;;;;;5023179;28;20180;-68
2021/12/04 05:12:56;;;;;;;1.80;0.70;;;2.90;96.10;;;;;;4990323;28;20340;-68
2021/12/04 05:15:39;;;;;;;0.87;0.87;;;2.90;95.90;;;;;;4991040;28;20190;-68
2021/12/04 05:20:36;;;;;;;1.13;0.80;;;3.00;95.60;;;;;;4996255;28;20204;-68
2021/12/04 05:23:02;;;;;;;1.10;1.10;;;3.00;95.50;;;;;;4990647;28;20288;-67
2021/12/04 05:25:29;;;;;;;0.67;0.67;;;3.00;95.20;;;;;;4994006;28;20264;-68
2021/12/04 05:27:55;;;;;;;1.50;0.90;;;3.00;95.30;;;;;;4991768;28;20608;-68
2021/12/04 05:30:21;;;;;;;1.90;1.80;;;3.10;95.30;;;;;;4991899;28;20258;-68
2021/12/04 05:32:47;;;;;;;1.33;1.07;;;3.10;95.20;;;;;;4991892;28;20310;-68
2021/12/04 05:35:13;;;;;;;1.60;1.40;;;3.10;95.20;;;;;;5002293;28;20196;-69
2021/12/04 05:37:38;;;;;;;1.40;1.37;;;3.10;95.20;;;;;;5025954;28;20188;-69
2021/12/04 05:40:06;;;;;;;3.40;1.10;;;3.10;95.10;;;;;;5025310;28;20200;-68
2021/12/04 05:42:32;;;;;;;1.13;1.07;;;3.10;94.90;;;;;;5023802;28;20741;-68
2021/12/04 05:44:58;;;;;;;0.90;0.90;;;3.00;94.90;;;;;;5025094;28;20303;-68
2021/12/04 05:47:30;;;;;;;0.70;0.70;;;3.10;95.10;;;;;;5018891;28;20189;-68
2021/12/04 05:50:12;;;;;;;1.13;1.13;;;3.10;95.10;;;;;;5026108;28;20242;-68
2021/12/04 05:52:49;;;;;;;0.87;0.87;;;3.10;95.10;;;;;;5021251;28;20180;-68
2021/12/04 05:55:18;;;;;;;1.10;1.10;;;3.10;95.00;;;;;;5023363;28;21197;-68
2021/12/04 05:57:44;;;;;;;1.40;1.30;;;3.10;95.00;;;;;;5025294;28;20200;-68
2021/12/04 06:00:15;;;;;;;1.50;1.40;;;3.10;95.00;;;;;;5022418;28;20196;-68
2021/12/04 06:02:41;;;;;;;1.57;1.47;;;3.10;95.00;;;;;;5024505;28;21920;-68
2021/12/04 06:05:07;;;;;;;1.37;1.37;;;3.10;95.10;;;;;;5021172;28;20185;-68
2021/12/04 06:07:33;;;;;;;2.00;1.47;;;3.10;95.20;;;;;;5023574;28;20177;-68
2021/12/04 06:09:59;;;;;;;2.37;2.17;;;3.10;95.20;;;;;;5022617;28;20683;-68
2021/12/04 06:12:25;;;;;;;1.20;1.20;;;3.00;95.20;;;;;;5025346;28;20214;-68
2021/12/04 06:14:51;;;;;;;0.97;0.97;;;3.00;95.40;;;;;;5022367;28;21049;-68
2021/12/04 06:17:20;;;;;;;1.93;1.77;;;3.00;95.50;;;;;;5025104;28;20223;-68
2021/12/04 06:22:37;;;;;;;3.67;2.23;;;3.00;95.30;;;;;;5021023;28;20215;-68
2021/12/04 06:25:08;;;;;;;1.90;1.80;;;3.00;95.30;;;;;;5025421;28;20180;-67
2021/12/04 06:27:34;;;;;;;1.90;1.80;;;3.00;95.60;;;;;;5019826;28;20180;-67
2021/12/04 06:30:00;;;;;;;3.17;1.37;;;3.00;95.60;;;;;;5022727;28;20208;-67
2021/12/04 06:32:25;;;;;;;2.40;1.77;;;3.00;95.40;;;;;;5024621;28;20191;-67
2021/12/04 06:34:52;;;;;;;3.47;2.50;;;3.00;95.20;;;;;;5025556;28;20954;-68
2021/12/04 06:37:18;;;;;;;1.20;1.20;;;3.00;95.20;;;;;;5022686;28;20667;-68
2021/12/04 06:39:44;;;;;;;4.00;1.50;;;3.00;95.30;;;;;;5025688;28;20634;-68
2021/12/04 06:42:10;;;;;;;2.33;2.13;;;3.00;95.10;;;;;;5022215;28;20184;-68
2021/12/04 06:44:36;;;;;;;1.30;1.20;;;3.10;95.00;;;;;;5024564;28;20185;-68
2021/12/04 06:47:04;;;;;;;1.77;1.70;;;3.10;94.90;;;;;;5028295;28;20199;-68
2021/12/04 06:49:35;;;;;;;4.00;1.90;;;3.10;95.00;;;;;;5024426;28;20611;-68
2021/12/04 06:52:05;;;;;;;1.90;1.80;;;3.20;94.80;;;;;;5023928;28;20192;-68
2021/12/04 06:54:38;;;;;;;2.93;2.27;;;3.20;94.50;;;;;;5024903;28;20220;-68
2021/12/04 06:57:08;;;;;;;2.00;1.90;;;3.30;94.20;;;;;;5022081;28;20693;-68
2021/12/04 06:59:35;;;;;;;2.97;2.77;;;3.30;94.00;;;;;;5034105;28;20585;-68
2021/12/04 07:02:01;;;;;;;3.53;2.97;;;3.40;94.00;;;;;;5023849;28;20176;-68
2021/12/04 07:04:34;;;;;;;3.73;2.27;;;3.40;94.00;;;;;;5023866;28;20187;-68
2021/12/04 07:07:00;;;;;;;2.67;2.47;;;3.40;94.10;;;;;;5019753;28;20191;-68
2021/12/04 07:09:26;;;;;;;2.97;2.77;;;3.50;93.60;;;;;;5021299;28;20293;-70
2021/12/04 07:11:52;;;;;;;2.67;2.47;;;3.40;93.50;;;;;;5021581;28;20185;-69
2021/12/04 07:14:18;;;;;;;2.73;2.53;;;3.40;93.40;;;;;;5022833;28;20564;-70
2021/12/04 07:16:45;;;;;;;2.50;2.23;;;3.40;93.60;;;;;;5020220;28;20192;-70
2021/12/04 07:19:10;;;;;;;3.50;3.10;;;3.40;93.50;;;;;;5022180;28;20577;-69
2021/12/04 07:21:36;;;;;;;1.73;1.63;;;3.40;93.50;;;;;;5024655;28;20177;-70
2021/12/04 07:24:02;;;;;;;3.03;2.80;;;3.40;93.50;;;;;;5022393;28;20191;-69
2021/12/04 07:26:28;;;;;;;2.53;2.33;;;3.50;93.80;;;;;;5021295;28;20279;-69
2021/12/04 07:28:54;;;;;;;2.53;2.33;;;3.50;93.60;;;;;;5020892;28;20405;-70
2021/12/04 07:31:20;;;;;;;2.33;2.20;;;3.60;93.90;;;;;;5021404;28;20188;-70
2021/12/04 07:33:46;;;;;;;2.07;1.97;;;3.60;93.80;;;;;;5022951;28;20188;-70
2021/12/04 07:36:11;;;;;;;1.47;1.37;;;3.60;93.70;;;;;;5023504;28;21336;-70
2021/12/04 07:38:37;;;;;;;3.47;2.10;;;3.60;93.20;;;;;;5020653;28;20286;-70
2021/12/04 07:41:03;;;;;;;1.97;1.87;;;3.70;92.80;;;;;;5019704;28;20184;-68
2021/12/04 07:43:30;;;;;;;3.87;1.70;;;3.70;92.60;;;;;;5023042;28;20180;-70
2021/12/04 07:45:56;;;;;;;2.13;1.80;;;3.70;92.70;;;;;;5020767;28;20230;-70
2021/12/04 07:48:21;;;;;;;3.33;2.30;;;3.70;92.60;;;;;;5021088;28;20671;-70
2021/12/04 07:50:47;;;;;;;4.27;2.20;;;3.80;92.50;;;;;;5022660;28;20195;-71
2021/12/04 07:53:13;;;;;;;1.70;1.60;;;3.90;92.40;;;;;;5023316;28;20180;-70
2021/12/04 07:55:39;;;;;;;2.60;1.97;;;4.00;92.40;;;;;;5026768;28;20184;-72
2021/12/04 07:58:05;;;;;;;2.03;1.90;;;4.10;91.90;;;;;;5026141;28;20195;-70
2021/12/04 08:00:31;;;;;;;2.90;2.70;;;4.20;91.90;;;;;;5025793;28;20188;-70
2021/12/04 08:02:57;;;;;;;3.53;2.37;;;4.30;91.80;;;;;;5023064;28;20212;-70
2021/12/04 08:05:23;;;;;;;2.63;2.27;;;4.60;92.00;;;;;;5029541;28;20281;-69
2021/12/04 08:07:50;;;;;;;5.07;3.37;;;4.90;92.20;;;;;;5043467;28;20237;-70
2021/12/04 08:10:18;;;;;;;3.50;3.17;;;5.20;92.40;;;;;;5026310;28;20694;-70
2021/12/04 08:12:44;;;;;;;3.60;2.80;;;5.50;91.50;;;;;;5027696;28;20196;-70
2021/12/04 08:15:12;;;;;;;3.50;3.20;;;5.90;90.70;;;;;;5027757;28;20180;-70
2021/12/04 08:17:39;;;;;;;6.17;4.07;;;6.20;89.40;;;;;;5026318;28;20693;-70
2021/12/04 08:20:06;;;;;;;6.93;4.63;;;6.40;86.80;;;;;;5027243;28;20193;-73
2021/12/04 08:22:34;;;;;;;4.07;3.67;;;6.30;85.00;;;;;;5026492;28;20646;-70
2021/12/04 08:24:59;;;;;;;4.30;3.77;;;6.20;84.30;;;;;;5024555;28;20185;-71
2021/12/04 08:27:25;;;;;;;4.70;4.30;;;6.10;84.90;;;;;;5025376;28;20183;-69
2021/12/04 08:29:51;;;;;;;9.30;4.80;;;6.00;85.20;;;;;;5025089;28;20276;-70
2021/12/04 08:32:17;;;;;;;4.93;3.90;;;5.90;85.90;;;;;;5024829;28;20861;-71
2021/12/04 08:34:43;;;;;;;6.23;5.00;;;5.90;86.00;;;;;;5025702;28;20956;-70
2021/12/04 08:37:08;;;;;;;8.27;4.83;;;5.90;86.50;;;;;;5025361;28;20213;-71
2021/12/04 08:39:34;;;;;;;5.53;4.63;;;5.90;86.20;;;;;;5027169;28;20185;-71
2021/12/04 08:42:00;;;;;;;9.50;5.00;;;5.90;86.20;;;;;;5025539;28;20575;-71
2021/12/04 08:44:25;;;;;;;4.43;3.93;;;5.90;86.30;;;;;;5028407;28;20192;-71
2021/12/04 08:46:51;;;;;;;4.80;4.13;;;5.90;86.30;;;;;;5030909;28;20180;-71
2021/12/04 08:49:17;;;;;;;3.73;3.33;;;6.00;86.20;;;;;;5028222;28;20277;-71
2021/12/04 08:51:43;;;;;;;6.60;4.23;;;6.00;86.10;;;;;;5025238;28;20191;-70
2021/12/04 08:54:09;;;;;;;3.10;2.80;;;5.90;86.00;;;;;;5024135;28;20180;-71
2021/12/04 08:56:35;;;;;;;3.50;3.07;;;5.90;85.90;;;;;;5025339;28;20177;-70
2021/12/04 08:59:03;;;;;;;5.10;3.13;;;5.90;86.00;;;;;;5024223;28;20210;-71
2021/12/04 09:01:32;;;;;;;3.60;2.90;;;5.90;86.50;;;;;;5021887;28;20181;-71
2021/12/04 09:04:09;;;;;;;5.03;3.53;;;5.90;86.80;;;;;;5023658;28;20181;-70
2021/12/04 09:06:36;;;;;;;5.50;4.03;;;6.00;86.50;;;;;;5024579;28;20192;-71
2021/12/04 09:09:04;;;;;;;5.03;3.97;;;6.00;86.30;;;;;;5025317;28;20216;-71
2021/12/04 09:11:35;;;;;;;3.57;3.33;;;6.10;86.30;;;;;;5024157;28;20184;-71
2021/12/04 09:14:01;;;;;;;4.27;3.73;;;6.20;86.70;;;;;;5056084;28;20191;-70
2021/12/04 09:16:27;;;;;;;5.03;4.20;;;6.30;86.80;;;;;;5026022;28;20199;-71
2021/12/04 09:18:55;;;;;;;3.53;3.23;;;6.50;86.60;;;;;;5026774;28;20236;-70
2021/12/04 09:21:23;;;;;;;3.87;3.43;;;6.60;86.30;;;;;;5023761;28;20181;-71
2021/12/04 09:23:54;;;;;;;4.57;3.20;;;6.70;85.60;;;;;;5026304;28;20374;-71
2021/12/04 09:34:51;;;;;;;4.00;2.67;;;6.80;84.90;;;;;;5003287;28;20762;-72
2021/12/04 10:02:04;;;;;;;5.00;2.43;;;6.50;85.70;;;;;;4963636;28;20190;-71
2021/12/04 10:24:26;;;;;;;1.70;1.60;;;6.70;85.60;;;;;;4982216;28;20648;-69
2021/12/04 10:32:26;;;;;;;3.23;2.80;;;7.00;85.10;;;;;;5025444;28;20573;-70
2021/12/04 10:34:55;;;;;;;3.00;2.67;;;7.10;84.60;;;;;;5025568;28;20218;-70
2021/12/04 10:37:24;;;;;;;2.00;1.90;;;7.10;84.70;;;;;;5021936;28;20626;-70
2021/12/04 10:39:59;;;;;;;2.20;2.10;;;7.20;84.80;;;;;;5026000;28;20185;-70
2021/12/04 10:42:34;;;;;;;1.97;1.87;;;7.20;84.80;;;;;;5022922;28;20196;-68
2021/12/04 10:45:01;;;;;;;1.43;1.37;;;7.30;84.40;;;;;;5025668;28;20175;-69
2021/12/04 10:47:28;;;;;;;2.37;2.27;;;7.20;84.00;;;;;;5022195;28;20185;-69
2021/12/04 11:03:25;;;;;;;2.30;1.70;;;7.20;84.90;;;;;;5013544;28;20197;-72
2021/12/04 11:22:50;;;;;;;1.83;1.73;;;7.40;84.50;;;;;;5013701;28;20221;-73
2021/12/04 11:28:19;;;;;;;3.03;2.83;;;7.40;84.70;;;;;;5022673;28;20291;-72
2021/12/04 11:36:28;;;;;;;3.80;3.03;;;7.50;84.40;;;;;;5023405;28;20272;-73
2021/12/04 11:46:46;;;;;;;3.53;3.23;;;7.30;84.40;;;;;;5021961;28;20578;-75
2021/12/04 11:49:24;;;;;;;3.40;3.20;;;7.30;84.70;;;;;;5026404;28;20262;-76
2021/12/04 11:51:59;;;;;;;4.17;3.77;;;7.30;84.70;;;;;;5024575;28;20579;-74
2021/12/04 11:54:30;;;;;;;3.57;2.97;;;7.30;84.80;;;;;;5025863;28;20593;-75
2021/12/04 11:57:32;;;;;;;3.63;3.33;;;7.30;84.80;;;;;;5023159;28;20185;-75
2021/12/04 12:00:08;;;;;;;3.17;2.90;;;7.40;84.60;;;;;;5024822;28;20188;-75
2021/12/04 12:02:33;;;;;;;3.23;3.03;;;7.40;84.70;;;;;;5024574;28;20183;-76
2021/12/04 12:04:59;;;;;;;3.33;3.07;;;7.30;85.00;;;;;;5026075;28;20549;-78
2021/12/04 12:07:30;;;;;;;3.10;2.83;;;7.30;85.00;;;;;;5025909;28;20193;-76
2021/12/04 12:10:09;;;;;;;2.73;2.53;;;7.30;85.10;;;;;;5024285;28;20258;-75
2021/12/04 12:12:39;;;;;;;2.20;1.87;;;7.20;85.10;;;;;;5024855;28;20298;-76
2021/12/04 12:15:20;;;;;;;2.80;2.60;;;7.30;85.30;;;;;;5023408;28;20261;-76
2021/12/04 12:17:46;;;;;;;4.37;2.97;;;7.30;85.00;;;;;;5023265;28;20188;-75
2021/12/04 12:20:20;;;;;;;3.30;3.00;;;7.30;85.20;;;;;;5023054;28;20201;-75
2021/12/04 12:22:53;;;;;;;3.63;2.53;;;7.30;85.20;;;;;;5021882;28;20186;-75
2021/12/04 12:36:30;;;;;;;3.27;3.07;;;7.30;85.00;;;;;;4999826;28;20260;-76
2021/12/04 12:39:13;;;;;;;3.53;3.23;;;7.30;85.10;;;;;;5000959;28;20287;-75
2021/12/04 12:41:40;;;;;;;3.97;3.57;;;7.30;85.10;;;;;;4999855;28;20188;-75
2021/12/04 12:44:25;;;;;;;3.20;2.90;;;7.30;85.20;;;;;;4999982;28;20250;-73
2021/12/04 12:46:55;;;;;;;3.97;2.63;;;7.30;85.30;;;;;;4999701;28;20196;-73
2021/12/04 12:49:43;;;;;;;3.27;2.87;;;7.30;85.20;;;;;;4999177;28;20724;-73
2021/12/04 12:52:19;;;;;;;3.17;2.90;;;7.30;85.20;;;;;;4980869;28;20223;-74
2021/12/04 12:54:59;;;;;;;2.73;2.47;;;7.20;85.20;;;;;;4999757;28;20316;-73
2021/12/04 12:57:31;;;;;;;2.90;2.73;;;7.20;85.20;;;;;;4997350;28;20267;-74
2021/12/04 13:14:23;;;;;;;2.57;2.13;;;7.30;85.50;;;;;;4958863;28;20190;-74
2021/12/04 13:16:51;;;;;;;5.47;2.53;;;7.30;85.40;;;;;;4961635;28;20690;-71
2021/12/04 13:19:20;;;;;;;2.13;1.93;;;7.30;85.40;;;;;;4964775;28;20229;-71
2021/12/04 13:21:50;;;;;;;1.87;1.77;;;7.30;85.50;;;;;;4962723;28;20189;-72
2021/12/04 13:24:17;;;;;;;2.97;1.70;;;7.30;85.30;;;;;;4963686;28;20196;-73
2021/12/04 13:26:48;;;;;;;2.67;2.30;;;7.30;85.40;;;;;;4962043;28;20216;-71
2021/12/04 13:29:20;;;;;;;1.57;1.47;;;7.20;85.40;;;;;;4962064;28;20757;-72
2021/12/04 13:32:04;;;;;;;2.43;2.20;;;7.20;85.60;;;;;;4942408;28;20734;-73
2021/12/04 13:34:31;;;;;;;1.60;1.50;;;7.20;85.80;;;;;;4963183;28;20345;-72
2021/12/04 13:37:01;;;;;;;2.40;2.30;;;7.20;86.00;;;;;;4962011;28;20266;-71
2021/12/04 13:39:27;;;;;;;2.00;1.97;;;7.20;86.00;;;;;;5015377;28;20196;-72
2021/12/04 13:41:54;;;;;;;2.50;2.30;;;7.20;85.70;;;;;;5025464;28;20187;-72
2021/12/04 13:44:22;;;;;;;5.40;2.40;;;7.10;85.80;;;;;;5021778;28;20193;-72
2021/12/04 13:46:51;;;;;;;2.73;2.53;;;7.10;85.80;;;;;;5019153;28;20188;-73
2021/12/04 13:49:20;;;;;;;2.93;2.60;;;7.00;85.90;;;;;;5021689;28;20590;-72
2021/12/04 13:52:03;;;;;;;3.73;3.43;;;6.90;86.00;;;;;;5024174;28;20835;-73
2021/12/04 13:54:32;;;;;;;2.43;2.20;;;6.90;86.10;;;;;;5024802;28;20249;-72
2021/12/04 13:56:58;;;;;;;2.80;2.37;;;6.90;86.30;;;;;;5022573;28;20283;-73
2021/12/04 13:59:27;;;;;;;3.33;3.03;;;6.90;86.30;;;;;;5022124;28;20196;-72
2021/12/04 14:01:54;;;;;;;5.17;3.03;;;6.90;86.30;;;;;;5024970;28;20176;-72
2021/12/04 14:04:20;;;;;;;2.87;2.53;;;6.80;86.50;;;;;;5025283;28;20310;-73
2021/12/04 14:06:52;;;;;;;3.83;3.10;;;6.80;86.60;;;;;;5023287;28;20185;-73
2021/12/04 14:09:19;;;;;;;4.00;2.03;;;6.80;86.60;;;;;;5027980;28;20212;-73
2021/12/04 14:11:46;;;;;;;2.43;2.23;;;6.80;86.60;;;;;;5022312;28;20257;-74
2021/12/04 14:14:15;;;;;;;4.60;2.90;;;6.80;86.70;;;;;;5022487;28;20272;-73
2021/12/04 14:16:43;;;;;;;4.10;3.80;;;6.90;86.70;;;;;;5025389;28;20176;-73
2021/12/04 14:19:26;;;;;;;4.97;4.07;;;6.80;86.60;;;;;;5024354;28;21792;-73
2021/12/04 14:22:04;;;;;;;4.33;3.43;;;6.80;86.60;;;;;;5024927;28;20191;-73
2021/12/04 14:24:34;;;;;;;4.13;3.73;;;6.70;86.60;;;;;;5020311;28;20192;-71
2021/12/04 14:27:04;;;;;;;5.30;4.00;;;6.60;86.90;;;;;;5023869;28;20222;-71
2021/12/04 14:29:35;;;;;;;7.53;3.80;;;6.60;87.00;;;;;;5023082;28;20219;-72
2021/12/04 14:32:02;;;;;;;5.53;3.73;;;6.50;87.50;;;;;;5025520;28;20192;-73
2021/12/04 14:34:30;;;;;;;5.77;4.30;;;6.40;87.90;;;;;;5025036;28;20184;-73
2021/12/04 14:37:11;;;;;;;4.13;3.70;;;6.40;87.80;;;;;;5024021;28;20250;-72
2021/12/04 14:39:42;;;;;;;5.13;3.87;;;6.40;87.80;;;;;;5022791;28;20684;-71
2021/12/04 14:42:17;;;;;;;5.27;4.47;;;6.40;87.80;;;;;;5023465;28;20180;-72
2021/12/04 14:44:55;;;;;;;4.27;3.47;;;6.40;87.90;;;;;;5023550;28;20187;-72
2021/12/04 14:47:22;;;;;;;6.40;4.63;;;6.40;87.90;;;;;;5025166;28;20188;-72
2021/12/04 14:49:51;;;;;;;4.60;4.20;;;6.30;88.20;;;;;;5027985;28;20655;-72
2021/12/04 14:52:22;;;;;;;7.43;4.17;;;6.30;88.50;;;;;;5024575;28;20199;-72
2021/12/04 14:54:50;;;;;;;6.23;4.87;;;6.20;88.80;;;;;;5020841;28;20184;-71
2021/12/04 14:57:22;;;;;;;7.33;4.53;;;6.20;89.00;;;;;;5020434;28;20227;-72
2021/12/04 15:00:10;;;;;;;4.13;3.80;;;6.20;89.20;;;;;;5022365;28;20216;-72
2021/12/04 15:02:36;;;;;;;7.10;4.33;;;6.10;89.40;;;;;;5026994;28;20230;-72
2021/12/04 15:05:05;;;;;;;3.33;2.87;;;6.10;89.80;;;;;;5028319;28;20696;-71
2021/12/04 15:07:34;;;;;;;12.07;4.60;;;6.10;89.60;;;;;;5028401;28;20330;-71
2021/12/04 15:10:04;;;;;;;6.90;5.13;;;6.10;89.80;;;;;;5028148;28;20219;-71
2021/12/04 15:12:32;;;;;;;7.40;5.13;;;6.10;89.70;;;;;;5028510;28;20610;-71
2021/12/04 15:15:07;;;;;;;5.80;5.20;;;6.00;89.90;;;;;;5034485;28;20192;-71
2021/12/04 15:17:34;;;;;;;6.83;5.17;;;6.00;90.20;;;;;;5027532;28;20246;-72
2021/12/04 15:20:11;;;;;;;5.90;4.07;;;6.00;90.60;;;;;;5030359;28;20191;-72
2021/12/04 15:22:43;;;;;;;5.20;4.20;;;6.00;90.50;;;;;;5025778;28;20233;-72
2021/12/04 15:25:16;;;;;;;7.13;4.03;;;6.00;90.40;;;;;;5027063;28;20199;-71
2021/12/04 15:27:42;;;;;;;8.07;4.93;;;6.00;90.40;;;;;;5027598;28;20279;-72
2021/12/04 15:30:11;;;;;;;5.00;4.37;;;6.00;90.40;;;;;;5023706;28;20238;-73
2021/12/04 15:32:39;;;;;;;7.10;4.63;;;6.10;90.40;;;;;;5027037;28;20177;-73
2021/12/04 15:35:33;;;;;;;6.63;4.27;;;6.10;90.30;;;;;;5027144;28;20405;-71
2021/12/04 15:38:07;;;;;;;10.83;4.97;;;6.10;90.10;;;;;;5026476;28;20267;-72
2021/12/04 15:41:12;;;;;;;8.47;4.93;;;6.10;90.20;;;;;;5026656;28;20187;-71
2021/12/04 15:54:56;;;;;;;8.73;5.17;;;6.20;90.60;;;;;;4946548;28;20202;-73
2021/12/04 15:57:23;;;;;;;6.87;4.97;;;6.20;90.60;;;;;;4947205;28;20257;-73
2021/12/04 15:59:51;;;;;;;8.63;4.73;;;6.20;90.60;;;;;;4947819;29;20714;-74
2021/12/04 16:02:21;;;;;;;14.83;5.83;;;6.20;90.70;;;;;;4945191;29;20281;-72
2021/12/04 16:04:49;;;;;;;13.60;5.97;;;6.20;90.70;;;;;;4944018;28;20222;-72
2021/12/04 16:07:29;;;;;;;8.63;5.70;;;6.20;90.80;;;;;;4946429;28;20794;-71
2021/12/04 16:10:03;;;;;;;10.87;5.97;;;6.10;90.90;;;;;;4945946;28;20222;-71
2021/12/04 16:12:29;;;;;;;6.40;5.17;;;6.10;91.00;;;;;;4928943;29;20751;-71
2021/12/04 16:14:56;;;;;;;7.87;5.00;;;6.10;91.00;;;;;;4947957;28;20270;-71
2021/12/04 16:17:24;;;;;;;10.30;6.50;;;6.10;91.10;;;;;;4947216;29;20268;-71
2021/12/04 16:20:01;;;;;;;8.57;5.37;;;6.10;91.30;;;;;;4947605;28;20186;-71
2021/12/04 16:22:27;;;;;;;11.67;5.77;;;6.10;91.40;;;;;;4947285;28;20696;-71
2021/12/04 16:24:55;;;;;;;11.43;6.40;;;6.20;91.40;;;;;;4967901;28;20193;-71
2021/12/04 16:27:26;;;;;;;10.40;6.67;;;6.20;91.40;;;;;;5026352;28;20203;-71
2021/12/04 16:30:11;;;;;;;9.07;4.80;;;6.20;91.60;;;;;;5026804;28;20303;-71
2021/12/04 16:32:53;;;;;;;13.10;6.00;;;6.20;91.40;;;;;;5026239;28;20184;-71
2021/12/04 16:35:40;;;;;;;12.63;5.37;;;6.30;91.20;;;;;;5027126;28;20187;-70